<?xml version="1.0" encoding="UTF-8" standalone="no" ?>
<gpx xmlns="http://www.topografix.com/GPX/1/1" xmlns:xsi="http://www.w3.org/2001/XMLSchema-instance" xsi:schemaLocation="http://www.topografix.com/GPX/1/1 http://www.topografix.com/GPX/1/1/gpx.xsd" version="1.1" creator="VisuGPX - https://www.visugpx.com">
  <metadata>
    <name>trail des fontaines 20kms</name>
    <desc><![CDATA[trace du 20 kms ( partie 6 kms à rajouter sur le 12 kms)]]></desc>
  </metadata>
  <trk>
    <name><![CDATA[Sequence 1]]></name>
    <trkseg>
      <trkpt lat="44.38534" lon="1.45578">
        <ele>211</ele>
        <time>2016-10-26T12:41:16Z</time>
      </trkpt>
    </trkseg>
  </trk>
  <trk>
    <name><![CDATA[Sequence 2]]></name>
    <trkseg>
      <trkpt lat="44.38554" lon="1.45575">
        <ele>221</ele>
        <time>2016-10-26T12:43:44Z</time>
      </trkpt>
      <trkpt lat="44.38564" lon="1.45574">
        <ele>219</ele>
        <time>2016-10-26T12:43:51Z</time>
      </trkpt>
      <trkpt lat="44.38571" lon="1.45571">
        <ele>220</ele>
        <time>2016-10-26T12:43:57Z</time>
      </trkpt>
      <trkpt lat="44.38577" lon="1.45566">
        <ele>224</ele>
        <time>2016-10-26T12:44:02Z</time>
      </trkpt>
      <trkpt lat="44.38584" lon="1.45559">
        <ele>227</ele>
        <time>2016-10-26T12:44:09Z</time>
      </trkpt>
      <trkpt lat="44.38588" lon="1.45553">
        <ele>229</ele>
        <time>2016-10-26T12:44:15Z</time>
      </trkpt>
      <trkpt lat="44.38591" lon="1.45547">
        <ele>230</ele>
        <time>2016-10-26T12:44:21Z</time>
      </trkpt>
      <trkpt lat="44.38594" lon="1.4554">
        <ele>231</ele>
        <time>2016-10-26T12:44:26Z</time>
      </trkpt>
      <trkpt lat="44.38597" lon="1.45516">
        <ele>230</ele>
        <time>2016-10-26T12:44:37Z</time>
      </trkpt>
      <trkpt lat="44.38597" lon="1.45514">
        <ele>230</ele>
        <time>2016-10-26T12:44:38Z</time>
      </trkpt>
      <trkpt lat="44.38601" lon="1.45499">
        <ele>231</ele>
        <time>2016-10-26T12:44:47Z</time>
      </trkpt>
      <trkpt lat="44.38605" lon="1.45487">
        <ele>228</ele>
        <time>2016-10-26T12:44:53Z</time>
      </trkpt>
      <trkpt lat="44.38608" lon="1.45483">
        <ele>228</ele>
        <time>2016-10-26T12:44:56Z</time>
      </trkpt>
      <trkpt lat="44.38613" lon="1.45488">
        <ele>226</ele>
        <time>2016-10-26T12:45:03Z</time>
      </trkpt>
      <trkpt lat="44.38617" lon="1.45494">
        <ele>227</ele>
        <time>2016-10-26T12:45:12Z</time>
      </trkpt>
      <trkpt lat="44.38619" lon="1.45494">
        <ele>228</ele>
        <time>2016-10-26T12:45:14Z</time>
      </trkpt>
      <trkpt lat="44.38622" lon="1.45487">
        <ele>229</ele>
        <time>2016-10-26T12:45:20Z</time>
      </trkpt>
      <trkpt lat="44.38626" lon="1.45472">
        <ele>230</ele>
        <time>2016-10-26T12:45:28Z</time>
      </trkpt>
      <trkpt lat="44.38632" lon="1.4547">
        <ele>229</ele>
        <time>2016-10-26T12:45:32Z</time>
      </trkpt>
      <trkpt lat="44.38639" lon="1.45465">
        <ele>227</ele>
        <time>2016-10-26T12:45:44Z</time>
      </trkpt>
      <trkpt lat="44.38653" lon="1.45441">
        <ele>226</ele>
        <time>2016-10-26T12:45:54Z</time>
      </trkpt>
      <trkpt lat="44.38655" lon="1.45438">
        <ele>224</ele>
        <time>2016-10-26T12:45:56Z</time>
      </trkpt>
      <trkpt lat="44.38661" lon="1.45425">
        <ele>221</ele>
        <time>2016-10-26T12:46:02Z</time>
      </trkpt>
      <trkpt lat="44.38669" lon="1.45408">
        <ele>217</ele>
        <time>2016-10-26T12:46:11Z</time>
      </trkpt>
      <trkpt lat="44.38674" lon="1.45402">
        <ele>215</ele>
        <time>2016-10-26T12:46:15Z</time>
      </trkpt>
      <trkpt lat="44.38685" lon="1.45399">
        <ele>210</ele>
        <time>2016-10-26T12:46:22Z</time>
      </trkpt>
      <trkpt lat="44.38691" lon="1.45396">
        <ele>210</ele>
        <time>2016-10-26T12:46:26Z</time>
      </trkpt>
      <trkpt lat="44.38707" lon="1.4539">
        <ele>212</ele>
        <time>2016-10-26T12:46:36Z</time>
      </trkpt>
      <trkpt lat="44.3871" lon="1.4539">
        <ele>212</ele>
        <time>2016-10-26T12:46:38Z</time>
      </trkpt>
      <trkpt lat="44.38722" lon="1.45386">
        <ele>213</ele>
        <time>2016-10-26T12:46:45Z</time>
      </trkpt>
      <trkpt lat="44.38731" lon="1.45376">
        <ele>218</ele>
        <time>2016-10-26T12:46:52Z</time>
      </trkpt>
      <trkpt lat="44.38736" lon="1.4537">
        <ele>217</ele>
        <time>2016-10-26T12:46:56Z</time>
      </trkpt>
      <trkpt lat="44.38744" lon="1.45364">
        <ele>217</ele>
        <time>2016-10-26T12:47:02Z</time>
      </trkpt>
      <trkpt lat="44.38752" lon="1.45363">
        <ele>214</ele>
        <time>2016-10-26T12:47:08Z</time>
      </trkpt>
      <trkpt lat="44.38767" lon="1.45357">
        <ele>204</ele>
        <time>2016-10-26T12:47:19Z</time>
      </trkpt>
      <trkpt lat="44.38769" lon="1.45356">
        <ele>201</ele>
        <time>2016-10-26T12:47:21Z</time>
      </trkpt>
      <trkpt lat="44.38778" lon="1.45351">
        <ele>204</ele>
        <time>2016-10-26T12:47:30Z</time>
      </trkpt>
      <trkpt lat="44.38779" lon="1.45349">
        <ele>204</ele>
        <time>2016-10-26T12:47:32Z</time>
      </trkpt>
      <trkpt lat="44.38782" lon="1.45346">
        <ele>207</ele>
        <time>2016-10-26T12:47:39Z</time>
      </trkpt>
      <trkpt lat="44.38794" lon="1.45353">
        <ele>214</ele>
        <time>2016-10-26T12:48:12Z</time>
      </trkpt>
      <trkpt lat="44.38796" lon="1.45356">
        <ele>216</ele>
        <time>2016-10-26T12:48:15Z</time>
      </trkpt>
      <trkpt lat="44.388" lon="1.45361">
        <ele>217</ele>
        <time>2016-10-26T12:48:21Z</time>
      </trkpt>
      <trkpt lat="44.38803" lon="1.45366">
        <ele>217</ele>
        <time>2016-10-26T12:48:26Z</time>
      </trkpt>
      <trkpt lat="44.38806" lon="1.45371">
        <ele>218</ele>
        <time>2016-10-26T12:48:32Z</time>
      </trkpt>
      <trkpt lat="44.38808" lon="1.45375">
        <ele>220</ele>
        <time>2016-10-26T12:48:38Z</time>
      </trkpt>
      <trkpt lat="44.38816" lon="1.45388">
        <ele>222</ele>
        <time>2016-10-26T12:49:03Z</time>
      </trkpt>
      <trkpt lat="44.3882" lon="1.45395">
        <ele>223</ele>
        <time>2016-10-26T12:49:08Z</time>
      </trkpt>
      <trkpt lat="44.38823" lon="1.45402">
        <ele>224</ele>
        <time>2016-10-26T12:49:14Z</time>
      </trkpt>
      <trkpt lat="44.38824" lon="1.45406">
        <ele>227</ele>
        <time>2016-10-26T12:49:21Z</time>
      </trkpt>
      <trkpt lat="44.38843" lon="1.45402">
        <ele>227</ele>
        <time>2016-10-26T12:50:14Z</time>
      </trkpt>
      <trkpt lat="44.38852" lon="1.45396">
        <ele>225</ele>
        <time>2016-10-26T12:50:20Z</time>
      </trkpt>
      <trkpt lat="44.38859" lon="1.45394">
        <ele>223</ele>
        <time>2016-10-26T12:50:26Z</time>
      </trkpt>
      <trkpt lat="44.38865" lon="1.45397">
        <ele>220</ele>
        <time>2016-10-26T12:50:32Z</time>
      </trkpt>
      <trkpt lat="44.38873" lon="1.454">
        <ele>225</ele>
        <time>2016-10-26T12:50:38Z</time>
      </trkpt>
      <trkpt lat="44.38878" lon="1.45405">
        <ele>225</ele>
        <time>2016-10-26T12:50:44Z</time>
      </trkpt>
      <trkpt lat="44.38886" lon="1.45404">
        <ele>226</ele>
        <time>2016-10-26T12:50:52Z</time>
      </trkpt>
      <trkpt lat="44.38891" lon="1.45404">
        <ele>223</ele>
        <time>2016-10-26T12:50:57Z</time>
      </trkpt>
      <trkpt lat="44.38895" lon="1.45405">
        <ele>223</ele>
        <time>2016-10-26T12:51:02Z</time>
      </trkpt>
      <trkpt lat="44.38902" lon="1.45406">
        <ele>223</ele>
        <time>2016-10-26T12:51:08Z</time>
      </trkpt>
      <trkpt lat="44.38911" lon="1.45415">
        <ele>223</ele>
        <time>2016-10-26T12:51:17Z</time>
      </trkpt>
      <trkpt lat="44.38914" lon="1.45415">
        <ele>225</ele>
        <time>2016-10-26T12:51:23Z</time>
      </trkpt>
      <trkpt lat="44.38916" lon="1.45415">
        <ele>225</ele>
        <time>2016-10-26T12:51:26Z</time>
      </trkpt>
      <trkpt lat="44.38927" lon="1.45422">
        <ele>234</ele>
        <time>2016-10-26T12:51:47Z</time>
      </trkpt>
      <trkpt lat="44.38928" lon="1.45425">
        <ele>234</ele>
        <time>2016-10-26T12:51:53Z</time>
      </trkpt>
      <trkpt lat="44.3893" lon="1.45433">
        <ele>228</ele>
        <time>2016-10-26T12:51:58Z</time>
      </trkpt>
      <trkpt lat="44.38936" lon="1.45446">
        <ele>226</ele>
        <time>2016-10-26T12:52:06Z</time>
      </trkpt>
      <trkpt lat="44.38938" lon="1.45451">
        <ele>227</ele>
        <time>2016-10-26T12:52:08Z</time>
      </trkpt>
      <trkpt lat="44.38944" lon="1.45463">
        <ele>236</ele>
        <time>2016-10-26T12:52:18Z</time>
      </trkpt>
      <trkpt lat="44.38947" lon="1.45474">
        <ele>239</ele>
        <time>2016-10-26T12:52:24Z</time>
      </trkpt>
      <trkpt lat="44.38949" lon="1.45478">
        <ele>241</ele>
        <time>2016-10-26T12:52:29Z</time>
      </trkpt>
      <trkpt lat="44.38949" lon="1.45479">
        <ele>242</ele>
        <time>2016-10-26T12:52:31Z</time>
      </trkpt>
      <trkpt lat="44.3895" lon="1.45484">
        <ele>247</ele>
        <time>2016-10-26T12:52:37Z</time>
      </trkpt>
      <trkpt lat="44.38952" lon="1.45492">
        <ele>250</ele>
        <time>2016-10-26T12:52:49Z</time>
      </trkpt>
      <trkpt lat="44.38954" lon="1.455">
        <ele>253</ele>
        <time>2016-10-26T12:52:55Z</time>
      </trkpt>
      <trkpt lat="44.38959" lon="1.45509">
        <ele>253</ele>
        <time>2016-10-26T12:53:02Z</time>
      </trkpt>
      <trkpt lat="44.38963" lon="1.45518">
        <ele>247</ele>
        <time>2016-10-26T12:53:09Z</time>
      </trkpt>
      <trkpt lat="44.38966" lon="1.45524">
        <ele>248</ele>
        <time>2016-10-26T12:53:13Z</time>
      </trkpt>
      <trkpt lat="44.38974" lon="1.45523">
        <ele>252</ele>
        <time>2016-10-26T12:53:19Z</time>
      </trkpt>
      <trkpt lat="44.38983" lon="1.45517">
        <ele>247</ele>
        <time>2016-10-26T12:53:25Z</time>
      </trkpt>
      <trkpt lat="44.38992" lon="1.45515">
        <ele>244</ele>
        <time>2016-10-26T12:53:31Z</time>
      </trkpt>
      <trkpt lat="44.39004" lon="1.45507">
        <ele>244</ele>
        <time>2016-10-26T12:53:38Z</time>
      </trkpt>
      <trkpt lat="44.39011" lon="1.45497">
        <ele>242</ele>
        <time>2016-10-26T12:53:43Z</time>
      </trkpt>
      <trkpt lat="44.39024" lon="1.45485">
        <ele>235</ele>
        <time>2016-10-26T12:53:52Z</time>
      </trkpt>
      <trkpt lat="44.39031" lon="1.45477">
        <ele>235</ele>
        <time>2016-10-26T12:53:56Z</time>
      </trkpt>
      <trkpt lat="44.3904" lon="1.45467">
        <ele>234</ele>
        <time>2016-10-26T12:54:01Z</time>
      </trkpt>
      <trkpt lat="44.39054" lon="1.45456">
        <ele>232</ele>
        <time>2016-10-26T12:54:09Z</time>
      </trkpt>
      <trkpt lat="44.39065" lon="1.45438">
        <ele>230</ele>
        <time>2016-10-26T12:54:16Z</time>
      </trkpt>
      <trkpt lat="44.39073" lon="1.45424">
        <ele>230</ele>
        <time>2016-10-26T12:54:21Z</time>
      </trkpt>
      <trkpt lat="44.39089" lon="1.45407">
        <ele>228</ele>
        <time>2016-10-26T12:54:30Z</time>
      </trkpt>
      <trkpt lat="44.39096" lon="1.45395">
        <ele>227</ele>
        <time>2016-10-26T12:54:35Z</time>
      </trkpt>
      <trkpt lat="44.39101" lon="1.45391">
        <ele>225</ele>
        <time>2016-10-26T12:54:38Z</time>
      </trkpt>
      <trkpt lat="44.3911" lon="1.45387">
        <ele>223</ele>
        <time>2016-10-26T12:54:43Z</time>
      </trkpt>
      <trkpt lat="44.39123" lon="1.45379">
        <ele>220</ele>
        <time>2016-10-26T12:54:50Z</time>
      </trkpt>
      <trkpt lat="44.39138" lon="1.45372">
        <ele>214</ele>
        <time>2016-10-26T12:54:58Z</time>
      </trkpt>
      <trkpt lat="44.39144" lon="1.45368">
        <ele>215</ele>
        <time>2016-10-26T12:55:01Z</time>
      </trkpt>
      <trkpt lat="44.39169" lon="1.45356">
        <ele>211</ele>
        <time>2016-10-26T12:55:12Z</time>
      </trkpt>
      <trkpt lat="44.39174" lon="1.45353">
        <ele>211</ele>
        <time>2016-10-26T12:55:14Z</time>
      </trkpt>
      <trkpt lat="44.39187" lon="1.45351">
        <ele>212</ele>
        <time>2016-10-26T12:55:21Z</time>
      </trkpt>
      <trkpt lat="44.39188" lon="1.45355">
        <ele>209</ele>
        <time>2016-10-26T12:55:25Z</time>
      </trkpt>
      <trkpt lat="44.39198" lon="1.45371">
        <ele>205</ele>
        <time>2016-10-26T12:55:35Z</time>
      </trkpt>
      <trkpt lat="44.392" lon="1.45374">
        <ele>202</ele>
        <time>2016-10-26T12:55:37Z</time>
      </trkpt>
      <trkpt lat="44.39219" lon="1.45367">
        <ele>202</ele>
        <time>2016-10-26T12:55:46Z</time>
      </trkpt>
      <trkpt lat="44.39231" lon="1.45357">
        <ele>203</ele>
        <time>2016-10-26T12:55:51Z</time>
      </trkpt>
      <trkpt lat="44.3924" lon="1.4535">
        <ele>202</ele>
        <time>2016-10-26T12:55:55Z</time>
      </trkpt>
      <trkpt lat="44.39252" lon="1.4533">
        <ele>197</ele>
        <time>2016-10-26T12:56:03Z</time>
      </trkpt>
      <trkpt lat="44.39264" lon="1.45312">
        <ele>194</ele>
        <time>2016-10-26T12:56:12Z</time>
      </trkpt>
      <trkpt lat="44.39265" lon="1.45308">
        <ele>194</ele>
        <time>2016-10-26T12:56:13Z</time>
      </trkpt>
      <trkpt lat="44.39274" lon="1.4529">
        <ele>191</ele>
        <time>2016-10-26T12:56:19Z</time>
      </trkpt>
      <trkpt lat="44.39283" lon="1.45273">
        <ele>192</ele>
        <time>2016-10-26T12:56:25Z</time>
      </trkpt>
      <trkpt lat="44.3929" lon="1.45257">
        <ele>190</ele>
        <time>2016-10-26T12:56:31Z</time>
      </trkpt>
      <trkpt lat="44.39295" lon="1.45251">
        <ele>187</ele>
        <time>2016-10-26T12:56:37Z</time>
      </trkpt>
      <trkpt lat="44.39303" lon="1.45253">
        <ele>186</ele>
        <time>2016-10-26T12:56:43Z</time>
      </trkpt>
      <trkpt lat="44.39307" lon="1.45252">
        <ele>182</ele>
        <time>2016-10-26T12:56:49Z</time>
      </trkpt>
      <trkpt lat="44.39311" lon="1.45253">
        <ele>176</ele>
        <time>2016-10-26T12:56:55Z</time>
      </trkpt>
      <trkpt lat="44.39307" lon="1.45261">
        <ele>175</ele>
        <time>2016-10-26T12:57:06Z</time>
      </trkpt>
      <trkpt lat="44.39307" lon="1.45267">
        <ele>176</ele>
        <time>2016-10-26T12:57:09Z</time>
      </trkpt>
      <trkpt lat="44.39306" lon="1.45276">
        <ele>174</ele>
        <time>2016-10-26T12:57:14Z</time>
      </trkpt>
      <trkpt lat="44.39307" lon="1.45288">
        <ele>176</ele>
        <time>2016-10-26T12:57:20Z</time>
      </trkpt>
      <trkpt lat="44.39305" lon="1.45302">
        <ele>174</ele>
        <time>2016-10-26T12:57:27Z</time>
      </trkpt>
      <trkpt lat="44.39304" lon="1.45312">
        <ele>176</ele>
        <time>2016-10-26T12:57:31Z</time>
      </trkpt>
      <trkpt lat="44.39302" lon="1.45332">
        <ele>176</ele>
        <time>2016-10-26T12:57:37Z</time>
      </trkpt>
      <trkpt lat="44.39302" lon="1.4536">
        <ele>179</ele>
        <time>2016-10-26T12:57:47Z</time>
      </trkpt>
      <trkpt lat="44.39299" lon="1.45364">
        <ele>179</ele>
        <time>2016-10-26T12:57:49Z</time>
      </trkpt>
      <trkpt lat="44.39294" lon="1.45389">
        <ele>181</ele>
        <time>2016-10-26T12:57:58Z</time>
      </trkpt>
      <trkpt lat="44.39289" lon="1.4539">
        <ele>182</ele>
        <time>2016-10-26T12:58:01Z</time>
      </trkpt>
      <trkpt lat="44.3928" lon="1.45392">
        <ele>182</ele>
        <time>2016-10-26T12:58:07Z</time>
      </trkpt>
      <trkpt lat="44.39273" lon="1.45402">
        <ele>187</ele>
        <time>2016-10-26T12:58:14Z</time>
      </trkpt>
      <trkpt lat="44.39268" lon="1.45409">
        <ele>185</ele>
        <time>2016-10-26T12:58:19Z</time>
      </trkpt>
      <trkpt lat="44.39263" lon="1.45418">
        <ele>189</ele>
        <time>2016-10-26T12:58:27Z</time>
      </trkpt>
      <trkpt lat="44.3926" lon="1.45428">
        <ele>191</ele>
        <time>2016-10-26T12:58:33Z</time>
      </trkpt>
      <trkpt lat="44.39253" lon="1.45438">
        <ele>193</ele>
        <time>2016-10-26T12:58:40Z</time>
      </trkpt>
      <trkpt lat="44.39245" lon="1.4544">
        <ele>194</ele>
        <time>2016-10-26T12:58:47Z</time>
      </trkpt>
      <trkpt lat="44.39242" lon="1.45441">
        <ele>195</ele>
        <time>2016-10-26T12:58:49Z</time>
      </trkpt>
      <trkpt lat="44.39236" lon="1.45441">
        <ele>198</ele>
        <time>2016-10-26T12:58:55Z</time>
      </trkpt>
      <trkpt lat="44.39231" lon="1.45441">
        <ele>199</ele>
        <time>2016-10-26T12:59:01Z</time>
      </trkpt>
      <trkpt lat="44.39228" lon="1.45442">
        <ele>201</ele>
        <time>2016-10-26T12:59:08Z</time>
      </trkpt>
      <trkpt lat="44.39224" lon="1.4544">
        <ele>202</ele>
        <time>2016-10-26T12:59:13Z</time>
      </trkpt>
      <trkpt lat="44.39215" lon="1.4544">
        <ele>201</ele>
        <time>2016-10-26T12:59:23Z</time>
      </trkpt>
      <trkpt lat="44.39209" lon="1.45439">
        <ele>203</ele>
        <time>2016-10-26T12:59:28Z</time>
      </trkpt>
      <trkpt lat="44.39208" lon="1.45441">
        <ele>204</ele>
        <time>2016-10-26T12:59:31Z</time>
      </trkpt>
      <trkpt lat="44.39198" lon="1.45457">
        <ele>207</ele>
        <time>2016-10-26T12:59:42Z</time>
      </trkpt>
      <trkpt lat="44.39195" lon="1.45466">
        <ele>207</ele>
        <time>2016-10-26T12:59:46Z</time>
      </trkpt>
      <trkpt lat="44.39192" lon="1.45475">
        <ele>207</ele>
        <time>2016-10-26T12:59:50Z</time>
      </trkpt>
      <trkpt lat="44.39188" lon="1.45489">
        <ele>205</ele>
        <time>2016-10-26T12:59:57Z</time>
      </trkpt>
      <trkpt lat="44.3919" lon="1.45499">
        <ele>199</ele>
        <time>2016-10-26T13:00:01Z</time>
      </trkpt>
      <trkpt lat="44.39191" lon="1.45523">
        <ele>198</ele>
        <time>2016-10-26T13:00:09Z</time>
      </trkpt>
      <trkpt lat="44.39185" lon="1.4554">
        <ele>199</ele>
        <time>2016-10-26T13:00:16Z</time>
      </trkpt>
      <trkpt lat="44.39183" lon="1.45544">
        <ele>200</ele>
        <time>2016-10-26T13:00:19Z</time>
      </trkpt>
      <trkpt lat="44.39176" lon="1.45553">
        <ele>199</ele>
        <time>2016-10-26T13:00:25Z</time>
      </trkpt>
      <trkpt lat="44.39162" lon="1.45565">
        <ele>210</ele>
        <time>2016-10-26T13:00:35Z</time>
      </trkpt>
      <trkpt lat="44.39162" lon="1.4557">
        <ele>211</ele>
        <time>2016-10-26T13:00:37Z</time>
      </trkpt>
      <trkpt lat="44.39161" lon="1.45582">
        <ele>209</ele>
        <time>2016-10-26T13:00:43Z</time>
      </trkpt>
      <trkpt lat="44.39156" lon="1.4559">
        <ele>209</ele>
        <time>2016-10-26T13:00:50Z</time>
      </trkpt>
      <trkpt lat="44.39148" lon="1.45603">
        <ele>208</ele>
        <time>2016-10-26T13:00:57Z</time>
      </trkpt>
      <trkpt lat="44.39141" lon="1.45612">
        <ele>207</ele>
        <time>2016-10-26T13:01:02Z</time>
      </trkpt>
      <trkpt lat="44.39137" lon="1.4562">
        <ele>206</ele>
        <time>2016-10-26T13:01:07Z</time>
      </trkpt>
      <trkpt lat="44.39131" lon="1.4563">
        <ele>205</ele>
        <time>2016-10-26T13:01:13Z</time>
      </trkpt>
      <trkpt lat="44.39121" lon="1.45642">
        <ele>207</ele>
        <time>2016-10-26T13:01:19Z</time>
      </trkpt>
      <trkpt lat="44.39114" lon="1.45654">
        <ele>209</ele>
        <time>2016-10-26T13:01:25Z</time>
      </trkpt>
      <trkpt lat="44.39106" lon="1.4567">
        <ele>206</ele>
        <time>2016-10-26T13:01:31Z</time>
      </trkpt>
      <trkpt lat="44.39097" lon="1.45682">
        <ele>206</ele>
        <time>2016-10-26T13:01:37Z</time>
      </trkpt>
      <trkpt lat="44.39088" lon="1.45693">
        <ele>206</ele>
        <time>2016-10-26T13:01:43Z</time>
      </trkpt>
      <trkpt lat="44.39077" lon="1.45701">
        <ele>207</ele>
        <time>2016-10-26T13:01:49Z</time>
      </trkpt>
      <trkpt lat="44.39067" lon="1.45711">
        <ele>208</ele>
        <time>2016-10-26T13:01:55Z</time>
      </trkpt>
      <trkpt lat="44.39054" lon="1.45728">
        <ele>209</ele>
        <time>2016-10-26T13:02:03Z</time>
      </trkpt>
      <trkpt lat="44.39048" lon="1.45732">
        <ele>208</ele>
        <time>2016-10-26T13:02:07Z</time>
      </trkpt>
      <trkpt lat="44.3904" lon="1.4574">
        <ele>209</ele>
        <time>2016-10-26T13:02:13Z</time>
      </trkpt>
      <trkpt lat="44.39026" lon="1.4575">
        <ele>209</ele>
        <time>2016-10-26T13:02:22Z</time>
      </trkpt>
      <trkpt lat="44.39019" lon="1.45755">
        <ele>208</ele>
        <time>2016-10-26T13:02:28Z</time>
      </trkpt>
      <trkpt lat="44.39014" lon="1.45757">
        <ele>209</ele>
        <time>2016-10-26T13:02:31Z</time>
      </trkpt>
      <trkpt lat="44.39009" lon="1.45763">
        <ele>207</ele>
        <time>2016-10-26T13:02:38Z</time>
      </trkpt>
      <trkpt lat="44.39002" lon="1.45776">
        <ele>205</ele>
        <time>2016-10-26T13:02:48Z</time>
      </trkpt>
      <trkpt lat="44.39006" lon="1.45785">
        <ele>203</ele>
        <time>2016-10-26T13:02:53Z</time>
      </trkpt>
      <trkpt lat="44.39002" lon="1.45791">
        <ele>199</ele>
        <time>2016-10-26T13:02:59Z</time>
      </trkpt>
      <trkpt lat="44.39" lon="1.45792">
        <ele>199</ele>
        <time>2016-10-26T13:03:01Z</time>
      </trkpt>
      <trkpt lat="44.39" lon="1.45798">
        <ele>200</ele>
        <time>2016-10-26T13:03:07Z</time>
      </trkpt>
      <trkpt lat="44.38995" lon="1.45813">
        <ele>195</ele>
        <time>2016-10-26T13:03:31Z</time>
      </trkpt>
      <trkpt lat="44.38989" lon="1.45817">
        <ele>193</ele>
        <time>2016-10-26T13:03:37Z</time>
      </trkpt>
      <trkpt lat="44.38978" lon="1.45823">
        <ele>191</ele>
        <time>2016-10-26T13:03:43Z</time>
      </trkpt>
      <trkpt lat="44.38968" lon="1.45827">
        <ele>185</ele>
        <time>2016-10-26T13:03:49Z</time>
      </trkpt>
      <trkpt lat="44.38959" lon="1.45842">
        <ele>188</ele>
        <time>2016-10-26T13:03:55Z</time>
      </trkpt>
      <trkpt lat="44.3896" lon="1.45874">
        <ele>184</ele>
        <time>2016-10-26T13:04:05Z</time>
      </trkpt>
      <trkpt lat="44.38966" lon="1.4588">
        <ele>182</ele>
        <time>2016-10-26T13:04:10Z</time>
      </trkpt>
      <trkpt lat="44.38977" lon="1.45884">
        <ele>187</ele>
        <time>2016-10-26T13:04:17Z</time>
      </trkpt>
      <trkpt lat="44.3898" lon="1.45885">
        <ele>189</ele>
        <time>2016-10-26T13:04:19Z</time>
      </trkpt>
      <trkpt lat="44.38987" lon="1.4589">
        <ele>188</ele>
        <time>2016-10-26T13:04:26Z</time>
      </trkpt>
      <trkpt lat="44.38993" lon="1.45883">
        <ele>189</ele>
        <time>2016-10-26T13:04:33Z</time>
      </trkpt>
      <trkpt lat="44.38998" lon="1.45878">
        <ele>191</ele>
        <time>2016-10-26T13:04:37Z</time>
      </trkpt>
      <trkpt lat="44.39011" lon="1.45875">
        <ele>187</ele>
        <time>2016-10-26T13:04:44Z</time>
      </trkpt>
      <trkpt lat="44.39024" lon="1.45866">
        <ele>188</ele>
        <time>2016-10-26T13:04:51Z</time>
      </trkpt>
      <trkpt lat="44.39039" lon="1.45861">
        <ele>187</ele>
        <time>2016-10-26T13:04:59Z</time>
      </trkpt>
      <trkpt lat="44.39044" lon="1.45859">
        <ele>187</ele>
        <time>2016-10-26T13:05:02Z</time>
      </trkpt>
      <trkpt lat="44.39054" lon="1.45854">
        <ele>184</ele>
        <time>2016-10-26T13:05:08Z</time>
      </trkpt>
      <trkpt lat="44.39072" lon="1.45849">
        <ele>187</ele>
        <time>2016-10-26T13:05:17Z</time>
      </trkpt>
      <trkpt lat="44.39077" lon="1.45848">
        <ele>187</ele>
        <time>2016-10-26T13:05:19Z</time>
      </trkpt>
      <trkpt lat="44.39093" lon="1.45844">
        <ele>188</ele>
        <time>2016-10-26T13:05:25Z</time>
      </trkpt>
      <trkpt lat="44.39117" lon="1.4583">
        <ele>196</ele>
        <time>2016-10-26T13:05:35Z</time>
      </trkpt>
      <trkpt lat="44.39122" lon="1.45824">
        <ele>194</ele>
        <time>2016-10-26T13:05:38Z</time>
      </trkpt>
      <trkpt lat="44.39132" lon="1.45819">
        <ele>188</ele>
        <time>2016-10-26T13:05:44Z</time>
      </trkpt>
      <trkpt lat="44.3914" lon="1.45814">
        <ele>185</ele>
        <time>2016-10-26T13:05:49Z</time>
      </trkpt>
      <trkpt lat="44.39158" lon="1.45794">
        <ele>184</ele>
        <time>2016-10-26T13:05:59Z</time>
      </trkpt>
      <trkpt lat="44.39163" lon="1.45788">
        <ele>185</ele>
        <time>2016-10-26T13:06:02Z</time>
      </trkpt>
      <trkpt lat="44.3917" lon="1.45776">
        <ele>186</ele>
        <time>2016-10-26T13:06:07Z</time>
      </trkpt>
      <trkpt lat="44.39189" lon="1.45746">
        <ele>187</ele>
        <time>2016-10-26T13:06:18Z</time>
      </trkpt>
      <trkpt lat="44.39194" lon="1.45738">
        <ele>185</ele>
        <time>2016-10-26T13:06:21Z</time>
      </trkpt>
      <trkpt lat="44.39202" lon="1.4573">
        <ele>184</ele>
        <time>2016-10-26T13:06:25Z</time>
      </trkpt>
      <trkpt lat="44.39216" lon="1.4572">
        <ele>184</ele>
        <time>2016-10-26T13:06:32Z</time>
      </trkpt>
      <trkpt lat="44.39224" lon="1.45709">
        <ele>186</ele>
        <time>2016-10-26T13:06:37Z</time>
      </trkpt>
      <trkpt lat="44.39234" lon="1.45688">
        <ele>189</ele>
        <time>2016-10-26T13:06:46Z</time>
      </trkpt>
      <trkpt lat="44.39236" lon="1.45687">
        <ele>190</ele>
        <time>2016-10-26T13:06:49Z</time>
      </trkpt>
      <trkpt lat="44.39241" lon="1.45685">
        <ele>192</ele>
        <time>2016-10-26T13:06:58Z</time>
      </trkpt>
      <trkpt lat="44.39243" lon="1.45685">
        <ele>192</ele>
        <time>2016-10-26T13:07:01Z</time>
      </trkpt>
      <trkpt lat="44.39247" lon="1.45683">
        <ele>196</ele>
        <time>2016-10-26T13:07:10Z</time>
      </trkpt>
      <trkpt lat="44.39249" lon="1.45684">
        <ele>196</ele>
        <time>2016-10-26T13:07:13Z</time>
      </trkpt>
      <trkpt lat="44.39258" lon="1.45686">
        <ele>198</ele>
        <time>2016-10-26T13:07:38Z</time>
      </trkpt>
      <trkpt lat="44.39262" lon="1.45687">
        <ele>198</ele>
        <time>2016-10-26T13:07:43Z</time>
      </trkpt>
      <trkpt lat="44.39269" lon="1.45686">
        <ele>197</ele>
        <time>2016-10-26T13:07:52Z</time>
      </trkpt>
      <trkpt lat="44.39279" lon="1.45682">
        <ele>198</ele>
        <time>2016-10-26T13:08:15Z</time>
      </trkpt>
      <trkpt lat="44.39282" lon="1.45681">
        <ele>200</ele>
        <time>2016-10-26T13:08:19Z</time>
      </trkpt>
      <trkpt lat="44.39285" lon="1.4568">
        <ele>202</ele>
        <time>2016-10-26T13:08:26Z</time>
      </trkpt>
      <trkpt lat="44.3929" lon="1.45679">
        <ele>203</ele>
        <time>2016-10-26T13:08:37Z</time>
      </trkpt>
      <trkpt lat="44.393" lon="1.45676">
        <ele>205</ele>
        <time>2016-10-26T13:08:48Z</time>
      </trkpt>
      <trkpt lat="44.39301" lon="1.45676">
        <ele>205</ele>
        <time>2016-10-26T13:08:49Z</time>
      </trkpt>
      <trkpt lat="44.39305" lon="1.45674">
        <ele>210</ele>
        <time>2016-10-26T13:08:55Z</time>
      </trkpt>
      <trkpt lat="44.39309" lon="1.45675">
        <ele>211</ele>
        <time>2016-10-26T13:09:01Z</time>
      </trkpt>
      <trkpt lat="44.39316" lon="1.45675">
        <ele>214</ele>
        <time>2016-10-26T13:09:12Z</time>
      </trkpt>
      <trkpt lat="44.39316" lon="1.45679">
        <ele>216</ele>
        <time>2016-10-26T13:09:19Z</time>
      </trkpt>
      <trkpt lat="44.39318" lon="1.45684">
        <ele>218</ele>
        <time>2016-10-26T13:09:25Z</time>
      </trkpt>
      <trkpt lat="44.39321" lon="1.45686">
        <ele>220</ele>
        <time>2016-10-26T13:09:31Z</time>
      </trkpt>
      <trkpt lat="44.39324" lon="1.45688">
        <ele>221</ele>
        <time>2016-10-26T13:09:37Z</time>
      </trkpt>
      <trkpt lat="44.39326" lon="1.4569">
        <ele>223</ele>
        <time>2016-10-26T13:09:43Z</time>
      </trkpt>
      <trkpt lat="44.39328" lon="1.45692">
        <ele>224</ele>
        <time>2016-10-26T13:09:49Z</time>
      </trkpt>
      <trkpt lat="44.39331" lon="1.45693">
        <ele>226</ele>
        <time>2016-10-26T13:09:55Z</time>
      </trkpt>
      <trkpt lat="44.39334" lon="1.45695">
        <ele>227</ele>
        <time>2016-10-26T13:10:01Z</time>
      </trkpt>
      <trkpt lat="44.39337" lon="1.45696">
        <ele>228</ele>
        <time>2016-10-26T13:10:07Z</time>
      </trkpt>
      <trkpt lat="44.39341" lon="1.45698">
        <ele>229</ele>
        <time>2016-10-26T13:10:13Z</time>
      </trkpt>
      <trkpt lat="44.39344" lon="1.45697">
        <ele>232</ele>
        <time>2016-10-26T13:10:19Z</time>
      </trkpt>
      <trkpt lat="44.39348" lon="1.45698">
        <ele>234</ele>
        <time>2016-10-26T13:10:26Z</time>
      </trkpt>
      <trkpt lat="44.39352" lon="1.457">
        <ele>235</ele>
        <time>2016-10-26T13:10:31Z</time>
      </trkpt>
      <trkpt lat="44.39356" lon="1.45702">
        <ele>233</ele>
        <time>2016-10-26T13:10:38Z</time>
      </trkpt>
      <trkpt lat="44.39359" lon="1.45704">
        <ele>233</ele>
        <time>2016-10-26T13:10:43Z</time>
      </trkpt>
      <trkpt lat="44.39365" lon="1.45707">
        <ele>235</ele>
        <time>2016-10-26T13:11:00Z</time>
      </trkpt>
      <trkpt lat="44.39367" lon="1.4571">
        <ele>239</ele>
        <time>2016-10-26T13:12:25Z</time>
      </trkpt>
      <trkpt lat="44.39355" lon="1.45747">
        <ele>237</ele>
        <time>2016-10-26T13:13:55Z</time>
      </trkpt>
      <trkpt lat="44.39345" lon="1.45763">
        <ele>236</ele>
        <time>2016-10-26T13:14:04Z</time>
      </trkpt>
      <trkpt lat="44.39343" lon="1.45768">
        <ele>236</ele>
        <time>2016-10-26T13:14:07Z</time>
      </trkpt>
      <trkpt lat="44.3934" lon="1.45776">
        <ele>238</ele>
        <time>2016-10-26T13:14:13Z</time>
      </trkpt>
      <trkpt lat="44.39335" lon="1.45785">
        <ele>239</ele>
        <time>2016-10-26T13:14:19Z</time>
      </trkpt>
      <trkpt lat="44.39332" lon="1.45796">
        <ele>238</ele>
        <time>2016-10-26T13:14:25Z</time>
      </trkpt>
      <trkpt lat="44.39327" lon="1.45809">
        <ele>239</ele>
        <time>2016-10-26T13:14:34Z</time>
      </trkpt>
      <trkpt lat="44.39315" lon="1.45823">
        <ele>237</ele>
        <time>2016-10-26T13:14:42Z</time>
      </trkpt>
      <trkpt lat="44.39313" lon="1.45826">
        <ele>237</ele>
        <time>2016-10-26T13:14:43Z</time>
      </trkpt>
      <trkpt lat="44.39304" lon="1.45837">
        <ele>239</ele>
        <time>2016-10-26T13:14:49Z</time>
      </trkpt>
      <trkpt lat="44.39296" lon="1.45846">
        <ele>241</ele>
        <time>2016-10-26T13:14:55Z</time>
      </trkpt>
      <trkpt lat="44.39283" lon="1.45862">
        <ele>243</ele>
        <time>2016-10-26T13:15:02Z</time>
      </trkpt>
      <trkpt lat="44.39276" lon="1.45874">
        <ele>244</ele>
        <time>2016-10-26T13:15:07Z</time>
      </trkpt>
      <trkpt lat="44.39268" lon="1.45884">
        <ele>243</ele>
        <time>2016-10-26T13:15:13Z</time>
      </trkpt>
      <trkpt lat="44.39254" lon="1.45901">
        <ele>245</ele>
        <time>2016-10-26T13:15:23Z</time>
      </trkpt>
      <trkpt lat="44.39251" lon="1.45905">
        <ele>246</ele>
        <time>2016-10-26T13:15:25Z</time>
      </trkpt>
      <trkpt lat="44.3924" lon="1.45921">
        <ele>246</ele>
        <time>2016-10-26T13:15:34Z</time>
      </trkpt>
      <trkpt lat="44.39239" lon="1.45929">
        <ele>245</ele>
        <time>2016-10-26T13:15:37Z</time>
      </trkpt>
      <trkpt lat="44.39238" lon="1.45942">
        <ele>245</ele>
        <time>2016-10-26T13:15:43Z</time>
      </trkpt>
      <trkpt lat="44.39231" lon="1.4595">
        <ele>245</ele>
        <time>2016-10-26T13:15:49Z</time>
      </trkpt>
      <trkpt lat="44.39225" lon="1.45957">
        <ele>247</ele>
        <time>2016-10-26T13:15:55Z</time>
      </trkpt>
      <trkpt lat="44.39214" lon="1.45971">
        <ele>250</ele>
        <time>2016-10-26T13:16:03Z</time>
      </trkpt>
      <trkpt lat="44.39206" lon="1.45976">
        <ele>250</ele>
        <time>2016-10-26T13:16:07Z</time>
      </trkpt>
      <trkpt lat="44.39189" lon="1.45998">
        <ele>251</ele>
        <time>2016-10-26T13:16:17Z</time>
      </trkpt>
      <trkpt lat="44.39187" lon="1.46003">
        <ele>251</ele>
        <time>2016-10-26T13:16:19Z</time>
      </trkpt>
      <trkpt lat="44.39178" lon="1.46018">
        <ele>251</ele>
        <time>2016-10-26T13:16:25Z</time>
      </trkpt>
      <trkpt lat="44.39169" lon="1.46034">
        <ele>251</ele>
        <time>2016-10-26T13:16:31Z</time>
      </trkpt>
      <trkpt lat="44.39159" lon="1.46058">
        <ele>249</ele>
        <time>2016-10-26T13:16:41Z</time>
      </trkpt>
      <trkpt lat="44.39154" lon="1.46063">
        <ele>247</ele>
        <time>2016-10-26T13:16:44Z</time>
      </trkpt>
      <trkpt lat="44.39147" lon="1.46076">
        <ele>247</ele>
        <time>2016-10-26T13:16:49Z</time>
      </trkpt>
      <trkpt lat="44.3914" lon="1.46093">
        <ele>248</ele>
        <time>2016-10-26T13:16:55Z</time>
      </trkpt>
      <trkpt lat="44.3913" lon="1.46118">
        <ele>245</ele>
        <time>2016-10-26T13:17:03Z</time>
      </trkpt>
      <trkpt lat="44.39127" lon="1.46131">
        <ele>245</ele>
        <time>2016-10-26T13:17:07Z</time>
      </trkpt>
      <trkpt lat="44.39124" lon="1.4615">
        <ele>244</ele>
        <time>2016-10-26T13:17:13Z</time>
      </trkpt>
      <trkpt lat="44.39133" lon="1.46161">
        <ele>243</ele>
        <time>2016-10-26T13:17:19Z</time>
      </trkpt>
      <trkpt lat="44.39153" lon="1.46176">
        <ele>240</ele>
        <time>2016-10-26T13:17:29Z</time>
      </trkpt>
      <trkpt lat="44.39158" lon="1.46184">
        <ele>241</ele>
        <time>2016-10-26T13:17:32Z</time>
      </trkpt>
      <trkpt lat="44.39182" lon="1.46172">
        <ele>240</ele>
        <time>2016-10-26T13:17:42Z</time>
      </trkpt>
      <trkpt lat="44.39186" lon="1.46165">
        <ele>241</ele>
        <time>2016-10-26T13:17:44Z</time>
      </trkpt>
      <trkpt lat="44.392" lon="1.46149">
        <ele>240</ele>
        <time>2016-10-26T13:17:50Z</time>
      </trkpt>
      <trkpt lat="44.39219" lon="1.46139">
        <ele>233</ele>
        <time>2016-10-26T13:18:00Z</time>
      </trkpt>
      <trkpt lat="44.39227" lon="1.46134">
        <ele>228</ele>
        <time>2016-10-26T13:18:04Z</time>
      </trkpt>
      <trkpt lat="44.39235" lon="1.46126">
        <ele>226</ele>
        <time>2016-10-26T13:18:09Z</time>
      </trkpt>
      <trkpt lat="44.39242" lon="1.46115">
        <ele>225</ele>
        <time>2016-10-26T13:18:14Z</time>
      </trkpt>
      <trkpt lat="44.39251" lon="1.46107">
        <ele>220</ele>
        <time>2016-10-26T13:18:19Z</time>
      </trkpt>
      <trkpt lat="44.3926" lon="1.46099">
        <ele>214</ele>
        <time>2016-10-26T13:18:25Z</time>
      </trkpt>
      <trkpt lat="44.39269" lon="1.46091">
        <ele>211</ele>
        <time>2016-10-26T13:18:31Z</time>
      </trkpt>
      <trkpt lat="44.39284" lon="1.46073">
        <ele>211</ele>
        <time>2016-10-26T13:18:39Z</time>
      </trkpt>
      <trkpt lat="44.39303" lon="1.46055">
        <ele>209</ele>
        <time>2016-10-26T13:18:48Z</time>
      </trkpt>
      <trkpt lat="44.39305" lon="1.46053">
        <ele>208</ele>
        <time>2016-10-26T13:18:49Z</time>
      </trkpt>
      <trkpt lat="44.39314" lon="1.46038">
        <ele>199</ele>
        <time>2016-10-26T13:18:56Z</time>
      </trkpt>
      <trkpt lat="44.39331" lon="1.46032">
        <ele>197</ele>
        <time>2016-10-26T13:19:05Z</time>
      </trkpt>
      <trkpt lat="44.39336" lon="1.46028">
        <ele>199</ele>
        <time>2016-10-26T13:19:09Z</time>
      </trkpt>
      <trkpt lat="44.39341" lon="1.46027">
        <ele>195</ele>
        <time>2016-10-26T13:19:13Z</time>
      </trkpt>
      <trkpt lat="44.39347" lon="1.46021">
        <ele>187</ele>
        <time>2016-10-26T13:19:19Z</time>
      </trkpt>
      <trkpt lat="44.39358" lon="1.46019">
        <ele>189</ele>
        <time>2016-10-26T13:19:25Z</time>
      </trkpt>
      <trkpt lat="44.39371" lon="1.46014">
        <ele>186</ele>
        <time>2016-10-26T13:19:32Z</time>
      </trkpt>
      <trkpt lat="44.39389" lon="1.4601">
        <ele>186</ele>
        <time>2016-10-26T13:19:40Z</time>
      </trkpt>
      <trkpt lat="44.39402" lon="1.46001">
        <ele>191</ele>
        <time>2016-10-26T13:19:48Z</time>
      </trkpt>
      <trkpt lat="44.39404" lon="1.46">
        <ele>194</ele>
        <time>2016-10-26T13:19:51Z</time>
      </trkpt>
      <trkpt lat="44.39406" lon="1.45999">
        <ele>193</ele>
        <time>2016-10-26T13:19:55Z</time>
      </trkpt>
      <trkpt lat="44.39412" lon="1.45998">
        <ele>188</ele>
        <time>2016-10-26T13:20:01Z</time>
      </trkpt>
      <trkpt lat="44.3942" lon="1.46003">
        <ele>180</ele>
        <time>2016-10-26T13:20:07Z</time>
      </trkpt>
      <trkpt lat="44.39433" lon="1.46008">
        <ele>176</ele>
        <time>2016-10-26T13:20:16Z</time>
      </trkpt>
      <trkpt lat="44.39441" lon="1.46008">
        <ele>177</ele>
        <time>2016-10-26T13:20:19Z</time>
      </trkpt>
      <trkpt lat="44.39452" lon="1.46001">
        <ele>177</ele>
        <time>2016-10-26T13:20:25Z</time>
      </trkpt>
      <trkpt lat="44.39476" lon="1.4599">
        <ele>185</ele>
        <time>2016-10-26T13:20:35Z</time>
      </trkpt>
      <trkpt lat="44.39484" lon="1.45973">
        <ele>190</ele>
        <time>2016-10-26T13:20:40Z</time>
      </trkpt>
      <trkpt lat="44.3949" lon="1.45961">
        <ele>190</ele>
        <time>2016-10-26T13:20:44Z</time>
      </trkpt>
      <trkpt lat="44.39503" lon="1.45945">
        <ele>188</ele>
        <time>2016-10-26T13:20:53Z</time>
      </trkpt>
      <trkpt lat="44.39508" lon="1.45932">
        <ele>187</ele>
        <time>2016-10-26T13:20:59Z</time>
      </trkpt>
      <trkpt lat="44.39511" lon="1.45929">
        <ele>185</ele>
        <time>2016-10-26T13:21:01Z</time>
      </trkpt>
      <trkpt lat="44.39519" lon="1.45907">
        <ele>181</ele>
        <time>2016-10-26T13:21:11Z</time>
      </trkpt>
      <trkpt lat="44.39526" lon="1.45905">
        <ele>178</ele>
        <time>2016-10-26T13:21:15Z</time>
      </trkpt>
      <trkpt lat="44.39531" lon="1.45898">
        <ele>180</ele>
        <time>2016-10-26T13:21:19Z</time>
      </trkpt>
      <trkpt lat="44.39535" lon="1.45882">
        <ele>180</ele>
        <time>2016-10-26T13:21:25Z</time>
      </trkpt>
      <trkpt lat="44.39539" lon="1.45875">
        <ele>176</ele>
        <time>2016-10-26T13:21:32Z</time>
      </trkpt>
      <trkpt lat="44.39557" lon="1.45877">
        <ele>191</ele>
        <time>2016-10-26T13:22:18Z</time>
      </trkpt>
      <trkpt lat="44.39561" lon="1.45879">
        <ele>196</ele>
        <time>2016-10-26T13:22:22Z</time>
      </trkpt>
      <trkpt lat="44.39563" lon="1.4588">
        <ele>197</ele>
        <time>2016-10-26T13:22:25Z</time>
      </trkpt>
      <trkpt lat="44.39565" lon="1.45883">
        <ele>200</ele>
        <time>2016-10-26T13:22:31Z</time>
      </trkpt>
      <trkpt lat="44.39567" lon="1.45887">
        <ele>201</ele>
        <time>2016-10-26T13:22:38Z</time>
      </trkpt>
      <trkpt lat="44.39574" lon="1.45888">
        <ele>208</ele>
        <time>2016-10-26T13:22:52Z</time>
      </trkpt>
      <trkpt lat="44.39577" lon="1.4589">
        <ele>209</ele>
        <time>2016-10-26T13:22:58Z</time>
      </trkpt>
      <trkpt lat="44.3958" lon="1.4589">
        <ele>208</ele>
        <time>2016-10-26T13:23:02Z</time>
      </trkpt>
      <trkpt lat="44.39589" lon="1.45866">
        <ele>214</ele>
        <time>2016-10-26T13:23:38Z</time>
      </trkpt>
      <trkpt lat="44.39594" lon="1.45858">
        <ele>212</ele>
        <time>2016-10-26T13:23:43Z</time>
      </trkpt>
      <trkpt lat="44.39598" lon="1.45842">
        <ele>205</ele>
        <time>2016-10-26T13:23:51Z</time>
      </trkpt>
      <trkpt lat="44.39604" lon="1.45836">
        <ele>198</ele>
        <time>2016-10-26T13:23:57Z</time>
      </trkpt>
      <trkpt lat="44.39607" lon="1.45833">
        <ele>195</ele>
        <time>2016-10-26T13:24:01Z</time>
      </trkpt>
      <trkpt lat="44.39606" lon="1.45814">
        <ele>196</ele>
        <time>2016-10-26T13:24:12Z</time>
      </trkpt>
      <trkpt lat="44.39613" lon="1.45813">
        <ele>201</ele>
        <time>2016-10-26T13:24:25Z</time>
      </trkpt>
      <trkpt lat="44.39616" lon="1.45812">
        <ele>205</ele>
        <time>2016-10-26T13:24:31Z</time>
      </trkpt>
      <trkpt lat="44.3963" lon="1.45817">
        <ele>217</ele>
        <time>2016-10-26T13:25:09Z</time>
      </trkpt>
      <trkpt lat="44.39646" lon="1.45793">
        <ele>221</ele>
        <time>2016-10-26T13:26:09Z</time>
      </trkpt>
      <trkpt lat="44.39644" lon="1.45777">
        <ele>223</ele>
        <time>2016-10-26T13:26:14Z</time>
      </trkpt>
      <trkpt lat="44.39642" lon="1.45757">
        <ele>223</ele>
        <time>2016-10-26T13:26:23Z</time>
      </trkpt>
      <trkpt lat="44.39645" lon="1.45745">
        <ele>225</ele>
        <time>2016-10-26T13:26:30Z</time>
      </trkpt>
      <trkpt lat="44.39647" lon="1.45746">
        <ele>224</ele>
        <time>2016-10-26T13:26:31Z</time>
      </trkpt>
      <trkpt lat="44.3965" lon="1.45741">
        <ele>224</ele>
        <time>2016-10-26T13:26:37Z</time>
      </trkpt>
      <trkpt lat="44.39656" lon="1.45731">
        <ele>224</ele>
        <time>2016-10-26T13:26:46Z</time>
      </trkpt>
      <trkpt lat="44.39659" lon="1.4573">
        <ele>224</ele>
        <time>2016-10-26T13:26:49Z</time>
      </trkpt>
      <trkpt lat="44.39664" lon="1.45733">
        <ele>229</ele>
        <time>2016-10-26T13:26:57Z</time>
      </trkpt>
      <trkpt lat="44.3967" lon="1.45734">
        <ele>234</ele>
        <time>2016-10-26T13:27:07Z</time>
      </trkpt>
      <trkpt lat="44.39674" lon="1.45734">
        <ele>235</ele>
        <time>2016-10-26T13:27:14Z</time>
      </trkpt>
      <trkpt lat="44.39677" lon="1.45736">
        <ele>236</ele>
        <time>2016-10-26T13:27:19Z</time>
      </trkpt>
      <trkpt lat="44.39681" lon="1.45738">
        <ele>239</ele>
        <time>2016-10-26T13:27:25Z</time>
      </trkpt>
      <trkpt lat="44.39684" lon="1.45738">
        <ele>238</ele>
        <time>2016-10-26T13:27:31Z</time>
      </trkpt>
      <trkpt lat="44.39688" lon="1.4574">
        <ele>241</ele>
        <time>2016-10-26T13:27:37Z</time>
      </trkpt>
      <trkpt lat="44.39696" lon="1.45746">
        <ele>243</ele>
        <time>2016-10-26T13:27:48Z</time>
      </trkpt>
      <trkpt lat="44.39696" lon="1.45746">
        <ele>246</ele>
        <time>2016-10-26T13:27:49Z</time>
      </trkpt>
      <trkpt lat="44.39703" lon="1.45748">
        <ele>248</ele>
        <time>2016-10-26T13:27:57Z</time>
      </trkpt>
      <trkpt lat="44.39715" lon="1.45748">
        <ele>251</ele>
        <time>2016-10-26T13:28:06Z</time>
      </trkpt>
      <trkpt lat="44.39716" lon="1.45749">
        <ele>250</ele>
        <time>2016-10-26T13:28:07Z</time>
      </trkpt>
      <trkpt lat="44.39725" lon="1.45752">
        <ele>249</ele>
        <time>2016-10-26T13:28:15Z</time>
      </trkpt>
      <trkpt lat="44.39731" lon="1.45753">
        <ele>248</ele>
        <time>2016-10-26T13:28:19Z</time>
      </trkpt>
      <trkpt lat="44.39745" lon="1.4575">
        <ele>248</ele>
        <time>2016-10-26T13:28:30Z</time>
      </trkpt>
      <trkpt lat="44.39747" lon="1.4575">
        <ele>247</ele>
        <time>2016-10-26T13:28:31Z</time>
      </trkpt>
      <trkpt lat="44.39759" lon="1.45756">
        <ele>250</ele>
        <time>2016-10-26T13:28:38Z</time>
      </trkpt>
      <trkpt lat="44.39765" lon="1.45758">
        <ele>246</ele>
        <time>2016-10-26T13:28:43Z</time>
      </trkpt>
      <trkpt lat="44.39772" lon="1.45761">
        <ele>242</ele>
        <time>2016-10-26T13:28:49Z</time>
      </trkpt>
      <trkpt lat="44.3978" lon="1.45764">
        <ele>239</ele>
        <time>2016-10-26T13:28:55Z</time>
      </trkpt>
      <trkpt lat="44.39788" lon="1.45767">
        <ele>235</ele>
        <time>2016-10-26T13:29:01Z</time>
      </trkpt>
      <trkpt lat="44.39798" lon="1.45769">
        <ele>232</ele>
        <time>2016-10-26T13:29:07Z</time>
      </trkpt>
      <trkpt lat="44.39809" lon="1.45771">
        <ele>225</ele>
        <time>2016-10-26T13:29:14Z</time>
      </trkpt>
      <trkpt lat="44.39818" lon="1.45777">
        <ele>220</ele>
        <time>2016-10-26T13:29:23Z</time>
      </trkpt>
      <trkpt lat="44.39821" lon="1.45777">
        <ele>219</ele>
        <time>2016-10-26T13:29:26Z</time>
      </trkpt>
      <trkpt lat="44.39833" lon="1.4578">
        <ele>214</ele>
        <time>2016-10-26T13:29:35Z</time>
      </trkpt>
      <trkpt lat="44.39837" lon="1.45783">
        <ele>212</ele>
        <time>2016-10-26T13:29:39Z</time>
      </trkpt>
      <trkpt lat="44.3984" lon="1.45787">
        <ele>211</ele>
        <time>2016-10-26T13:29:43Z</time>
      </trkpt>
      <trkpt lat="44.3985" lon="1.45788">
        <ele>207</ele>
        <time>2016-10-26T13:29:50Z</time>
      </trkpt>
      <trkpt lat="44.39855" lon="1.45792">
        <ele>205</ele>
        <time>2016-10-26T13:29:55Z</time>
      </trkpt>
      <trkpt lat="44.39863" lon="1.45795">
        <ele>203</ele>
        <time>2016-10-26T13:30:02Z</time>
      </trkpt>
      <trkpt lat="44.39866" lon="1.458">
        <ele>201</ele>
        <time>2016-10-26T13:30:07Z</time>
      </trkpt>
      <trkpt lat="44.39873" lon="1.458">
        <ele>200</ele>
        <time>2016-10-26T13:30:13Z</time>
      </trkpt>
      <trkpt lat="44.39878" lon="1.45803">
        <ele>197</ele>
        <time>2016-10-26T13:30:19Z</time>
      </trkpt>
      <trkpt lat="44.39883" lon="1.45798">
        <ele>199</ele>
        <time>2016-10-26T13:30:25Z</time>
      </trkpt>
      <trkpt lat="44.3988" lon="1.45794">
        <ele>199</ele>
        <time>2016-10-26T13:30:34Z</time>
      </trkpt>
      <trkpt lat="44.39872" lon="1.45779">
        <ele>204</ele>
        <time>2016-10-26T13:31:07Z</time>
      </trkpt>
      <trkpt lat="44.3987" lon="1.4578">
        <ele>202</ele>
        <time>2016-10-26T13:31:13Z</time>
      </trkpt>
      <trkpt lat="44.3987" lon="1.45771">
        <ele>199</ele>
        <time>2016-10-26T13:31:25Z</time>
      </trkpt>
      <trkpt lat="44.3987" lon="1.45763">
        <ele>199</ele>
        <time>2016-10-26T13:31:31Z</time>
      </trkpt>
      <trkpt lat="44.39868" lon="1.45753">
        <ele>203</ele>
        <time>2016-10-26T13:31:37Z</time>
      </trkpt>
      <trkpt lat="44.39859" lon="1.45734">
        <ele>209</ele>
        <time>2016-10-26T13:31:48Z</time>
      </trkpt>
      <trkpt lat="44.39858" lon="1.45733">
        <ele>211</ele>
        <time>2016-10-26T13:31:49Z</time>
      </trkpt>
      <trkpt lat="44.39857" lon="1.45721">
        <ele>203</ele>
        <time>2016-10-26T13:31:59Z</time>
      </trkpt>
      <trkpt lat="44.39856" lon="1.45717">
        <ele>204</ele>
        <time>2016-10-26T13:32:02Z</time>
      </trkpt>
      <trkpt lat="44.39857" lon="1.45709">
        <ele>205</ele>
        <time>2016-10-26T13:32:09Z</time>
      </trkpt>
      <trkpt lat="44.39857" lon="1.45702">
        <ele>205</ele>
        <time>2016-10-26T13:32:18Z</time>
      </trkpt>
      <trkpt lat="44.39857" lon="1.45701">
        <ele>203</ele>
        <time>2016-10-26T13:32:19Z</time>
      </trkpt>
      <trkpt lat="44.3986" lon="1.45691">
        <ele>201</ele>
        <time>2016-10-26T13:32:27Z</time>
      </trkpt>
      <trkpt lat="44.39862" lon="1.45685">
        <ele>199</ele>
        <time>2016-10-26T13:32:35Z</time>
      </trkpt>
      <trkpt lat="44.39871" lon="1.45675">
        <ele>190</ele>
        <time>2016-10-26T13:33:06Z</time>
      </trkpt>
      <trkpt lat="44.39878" lon="1.45673">
        <ele>187</ele>
        <time>2016-10-26T13:33:15Z</time>
      </trkpt>
      <trkpt lat="44.39885" lon="1.45667">
        <ele>190</ele>
        <time>2016-10-26T13:33:21Z</time>
      </trkpt>
      <trkpt lat="44.39889" lon="1.4566">
        <ele>190</ele>
        <time>2016-10-26T13:33:31Z</time>
      </trkpt>
      <trkpt lat="44.39892" lon="1.45656">
        <ele>189</ele>
        <time>2016-10-26T13:33:37Z</time>
      </trkpt>
      <trkpt lat="44.39898" lon="1.45635">
        <ele>190</ele>
        <time>2016-10-26T13:34:06Z</time>
      </trkpt>
      <trkpt lat="44.39897" lon="1.45632">
        <ele>190</ele>
        <time>2016-10-26T13:34:07Z</time>
      </trkpt>
      <trkpt lat="44.39901" lon="1.45594">
        <ele>190</ele>
        <time>2016-10-26T13:34:18Z</time>
      </trkpt>
      <trkpt lat="44.39903" lon="1.45579">
        <ele>192</ele>
        <time>2016-10-26T13:34:22Z</time>
      </trkpt>
      <trkpt lat="44.39905" lon="1.45562">
        <ele>189</ele>
        <time>2016-10-26T13:34:27Z</time>
      </trkpt>
      <trkpt lat="44.39911" lon="1.45539">
        <ele>184</ele>
        <time>2016-10-26T13:34:36Z</time>
      </trkpt>
      <trkpt lat="44.39912" lon="1.45536">
        <ele>182</ele>
        <time>2016-10-26T13:34:37Z</time>
      </trkpt>
      <trkpt lat="44.39916" lon="1.45518">
        <ele>183</ele>
        <time>2016-10-26T13:34:44Z</time>
      </trkpt>
      <trkpt lat="44.39921" lon="1.45493">
        <ele>181</ele>
        <time>2016-10-26T13:34:52Z</time>
      </trkpt>
      <trkpt lat="44.39924" lon="1.45486">
        <ele>180</ele>
        <time>2016-10-26T13:34:55Z</time>
      </trkpt>
      <trkpt lat="44.39931" lon="1.45468">
        <ele>180</ele>
        <time>2016-10-26T13:35:02Z</time>
      </trkpt>
      <trkpt lat="44.39938" lon="1.45449">
        <ele>177</ele>
        <time>2016-10-26T13:35:09Z</time>
      </trkpt>
      <trkpt lat="44.39942" lon="1.45439">
        <ele>177</ele>
        <time>2016-10-26T13:35:13Z</time>
      </trkpt>
      <trkpt lat="44.39948" lon="1.45417">
        <ele>174</ele>
        <time>2016-10-26T13:35:21Z</time>
      </trkpt>
      <trkpt lat="44.39952" lon="1.45408">
        <ele>172</ele>
        <time>2016-10-26T13:35:25Z</time>
      </trkpt>
      <trkpt lat="44.39958" lon="1.45394">
        <ele>170</ele>
        <time>2016-10-26T13:35:31Z</time>
      </trkpt>
      <trkpt lat="44.39962" lon="1.45384">
        <ele>171</ele>
        <time>2016-10-26T13:35:37Z</time>
      </trkpt>
      <trkpt lat="44.39964" lon="1.45378">
        <ele>171</ele>
        <time>2016-10-26T13:35:43Z</time>
      </trkpt>
      <trkpt lat="44.39967" lon="1.45368">
        <ele>170</ele>
        <time>2016-10-26T13:35:49Z</time>
      </trkpt>
      <trkpt lat="44.3996" lon="1.45361">
        <ele>168</ele>
        <time>2016-10-26T13:35:58Z</time>
      </trkpt>
      <trkpt lat="44.39957" lon="1.45361">
        <ele>168</ele>
        <time>2016-10-26T13:36:01Z</time>
      </trkpt>
      <trkpt lat="44.3995" lon="1.45359">
        <ele>169</ele>
        <time>2016-10-26T13:36:07Z</time>
      </trkpt>
      <trkpt lat="44.39942" lon="1.4536">
        <ele>169</ele>
        <time>2016-10-26T13:36:13Z</time>
      </trkpt>
      <trkpt lat="44.3994" lon="1.45362">
        <ele>176</ele>
        <time>2016-10-26T13:37:43Z</time>
      </trkpt>
      <trkpt lat="44.39931" lon="1.45364">
        <ele>178</ele>
        <time>2016-10-26T13:38:07Z</time>
      </trkpt>
      <trkpt lat="44.39927" lon="1.45367">
        <ele>180</ele>
        <time>2016-10-26T13:38:14Z</time>
      </trkpt>
      <trkpt lat="44.39924" lon="1.45366">
        <ele>179</ele>
        <time>2016-10-26T13:39:43Z</time>
      </trkpt>
      <trkpt lat="44.39923" lon="1.45366">
        <ele>179</ele>
        <time>2016-10-26T13:41:13Z</time>
      </trkpt>
      <trkpt lat="44.39923" lon="1.45366">
        <ele>179</ele>
        <time>2016-10-26T13:42:43Z</time>
      </trkpt>
      <trkpt lat="44.39898" lon="1.45357">
        <ele>187</ele>
        <time>2016-10-26T13:44:14Z</time>
      </trkpt>
      <trkpt lat="44.39886" lon="1.45355">
        <ele>188</ele>
        <time>2016-10-26T13:44:22Z</time>
      </trkpt>
      <trkpt lat="44.39884" lon="1.45355">
        <ele>190</ele>
        <time>2016-10-26T13:44:25Z</time>
      </trkpt>
      <trkpt lat="44.39876" lon="1.4535">
        <ele>189</ele>
        <time>2016-10-26T13:44:31Z</time>
      </trkpt>
      <trkpt lat="44.39863" lon="1.45348">
        <ele>186</ele>
        <time>2016-10-26T13:44:39Z</time>
      </trkpt>
      <trkpt lat="44.3986" lon="1.45351">
        <ele>186</ele>
        <time>2016-10-26T13:44:43Z</time>
      </trkpt>
      <trkpt lat="44.39856" lon="1.45355">
        <ele>190</ele>
        <time>2016-10-26T13:44:49Z</time>
      </trkpt>
      <trkpt lat="44.39851" lon="1.45358">
        <ele>192</ele>
        <time>2016-10-26T13:44:55Z</time>
      </trkpt>
      <trkpt lat="44.39842" lon="1.45362">
        <ele>195</ele>
        <time>2016-10-26T13:45:01Z</time>
      </trkpt>
      <trkpt lat="44.39827" lon="1.45366">
        <ele>196</ele>
        <time>2016-10-26T13:45:09Z</time>
      </trkpt>
      <trkpt lat="44.3982" lon="1.45373">
        <ele>201</ele>
        <time>2016-10-26T13:45:15Z</time>
      </trkpt>
      <trkpt lat="44.39817" lon="1.45379">
        <ele>200</ele>
        <time>2016-10-26T13:45:19Z</time>
      </trkpt>
      <trkpt lat="44.39813" lon="1.45384">
        <ele>201</ele>
        <time>2016-10-26T13:45:25Z</time>
      </trkpt>
      <trkpt lat="44.39809" lon="1.45387">
        <ele>202</ele>
        <time>2016-10-26T13:45:31Z</time>
      </trkpt>
      <trkpt lat="44.39806" lon="1.45392">
        <ele>202</ele>
        <time>2016-10-26T13:45:37Z</time>
      </trkpt>
      <trkpt lat="44.39804" lon="1.45399">
        <ele>203</ele>
        <time>2016-10-26T13:45:44Z</time>
      </trkpt>
      <trkpt lat="44.39794" lon="1.45403">
        <ele>205</ele>
        <time>2016-10-26T13:45:53Z</time>
      </trkpt>
      <trkpt lat="44.39793" lon="1.45406">
        <ele>206</ele>
        <time>2016-10-26T13:45:55Z</time>
      </trkpt>
      <trkpt lat="44.39791" lon="1.45414">
        <ele>206</ele>
        <time>2016-10-26T13:46:01Z</time>
      </trkpt>
      <trkpt lat="44.39784" lon="1.45422">
        <ele>208</ele>
        <time>2016-10-26T13:46:10Z</time>
      </trkpt>
      <trkpt lat="44.39779" lon="1.45425">
        <ele>209</ele>
        <time>2016-10-26T13:46:17Z</time>
      </trkpt>
      <trkpt lat="44.39772" lon="1.45423">
        <ele>209</ele>
        <time>2016-10-26T13:46:31Z</time>
      </trkpt>
      <trkpt lat="44.39769" lon="1.45418">
        <ele>206</ele>
        <time>2016-10-26T13:46:37Z</time>
      </trkpt>
      <trkpt lat="44.39765" lon="1.45414">
        <ele>203</ele>
        <time>2016-10-26T13:46:44Z</time>
      </trkpt>
      <trkpt lat="44.3976" lon="1.45414">
        <ele>204</ele>
        <time>2016-10-26T13:46:49Z</time>
      </trkpt>
      <trkpt lat="44.39753" lon="1.45414">
        <ele>204</ele>
        <time>2016-10-26T13:46:56Z</time>
      </trkpt>
      <trkpt lat="44.3975" lon="1.45413">
        <ele>204</ele>
        <time>2016-10-26T13:47:01Z</time>
      </trkpt>
      <trkpt lat="44.39744" lon="1.45415">
        <ele>199</ele>
        <time>2016-10-26T13:47:07Z</time>
      </trkpt>
      <trkpt lat="44.39736" lon="1.45416">
        <ele>193</ele>
        <time>2016-10-26T13:47:17Z</time>
      </trkpt>
      <trkpt lat="44.39728" lon="1.4542">
        <ele>191</ele>
        <time>2016-10-26T13:47:22Z</time>
      </trkpt>
      <trkpt lat="44.39721" lon="1.45416">
        <ele>188</ele>
        <time>2016-10-26T13:47:30Z</time>
      </trkpt>
      <trkpt lat="44.39721" lon="1.45414">
        <ele>189</ele>
        <time>2016-10-26T13:47:31Z</time>
      </trkpt>
      <trkpt lat="44.39703" lon="1.45411">
        <ele>183</ele>
        <time>2016-10-26T13:48:19Z</time>
      </trkpt>
      <trkpt lat="44.39689" lon="1.45403">
        <ele>179</ele>
        <time>2016-10-26T13:48:30Z</time>
      </trkpt>
      <trkpt lat="44.39685" lon="1.45401">
        <ele>178</ele>
        <time>2016-10-26T13:48:33Z</time>
      </trkpt>
      <trkpt lat="44.39689" lon="1.45392">
        <ele>173</ele>
        <time>2016-10-26T13:48:50Z</time>
      </trkpt>
      <trkpt lat="44.39691" lon="1.45376">
        <ele>172</ele>
        <time>2016-10-26T13:49:19Z</time>
      </trkpt>
      <trkpt lat="44.3969" lon="1.45365">
        <ele>173</ele>
        <time>2016-10-26T13:49:25Z</time>
      </trkpt>
      <trkpt lat="44.39692" lon="1.45344">
        <ele>174</ele>
        <time>2016-10-26T13:49:36Z</time>
      </trkpt>
      <trkpt lat="44.39689" lon="1.45331">
        <ele>171</ele>
        <time>2016-10-26T13:49:40Z</time>
      </trkpt>
      <trkpt lat="44.39681" lon="1.45322">
        <ele>170</ele>
        <time>2016-10-26T13:49:44Z</time>
      </trkpt>
      <trkpt lat="44.3967" lon="1.45314">
        <ele>171</ele>
        <time>2016-10-26T13:49:49Z</time>
      </trkpt>
      <trkpt lat="44.39658" lon="1.453">
        <ele>166</ele>
        <time>2016-10-26T13:49:56Z</time>
      </trkpt>
      <trkpt lat="44.3965" lon="1.45292">
        <ele>163</ele>
        <time>2016-10-26T13:50:01Z</time>
      </trkpt>
      <trkpt lat="44.39628" lon="1.45286">
        <ele>166</ele>
        <time>2016-10-26T13:50:11Z</time>
      </trkpt>
      <trkpt lat="44.39621" lon="1.45284">
        <ele>166</ele>
        <time>2016-10-26T13:50:14Z</time>
      </trkpt>
      <trkpt lat="44.39607" lon="1.4528">
        <ele>167</ele>
        <time>2016-10-26T13:50:19Z</time>
      </trkpt>
      <trkpt lat="44.39594" lon="1.45278">
        <ele>170</ele>
        <time>2016-10-26T13:50:25Z</time>
      </trkpt>
      <trkpt lat="44.39577" lon="1.45269">
        <ele>163</ele>
        <time>2016-10-26T13:50:34Z</time>
      </trkpt>
      <trkpt lat="44.39556" lon="1.45258">
        <ele>164</ele>
        <time>2016-10-26T13:50:42Z</time>
      </trkpt>
      <trkpt lat="44.39554" lon="1.45256">
        <ele>164</ele>
        <time>2016-10-26T13:50:43Z</time>
      </trkpt>
      <trkpt lat="44.39539" lon="1.45247">
        <ele>166</ele>
        <time>2016-10-26T13:50:49Z</time>
      </trkpt>
      <trkpt lat="44.39526" lon="1.45238">
        <ele>169</ele>
        <time>2016-10-26T13:50:55Z</time>
      </trkpt>
      <trkpt lat="44.39512" lon="1.45227">
        <ele>168</ele>
        <time>2016-10-26T13:51:02Z</time>
      </trkpt>
      <trkpt lat="44.39505" lon="1.45221">
        <ele>167</ele>
        <time>2016-10-26T13:51:07Z</time>
      </trkpt>
      <trkpt lat="44.39491" lon="1.4521">
        <ele>167</ele>
        <time>2016-10-26T13:51:14Z</time>
      </trkpt>
      <trkpt lat="44.39471" lon="1.45207">
        <ele>166</ele>
        <time>2016-10-26T13:51:23Z</time>
      </trkpt>
      <trkpt lat="44.39457" lon="1.45204">
        <ele>169</ele>
        <time>2016-10-26T13:51:29Z</time>
      </trkpt>
      <trkpt lat="44.39452" lon="1.45203">
        <ele>169</ele>
        <time>2016-10-26T13:51:31Z</time>
      </trkpt>
      <trkpt lat="44.39437" lon="1.45202">
        <ele>170</ele>
        <time>2016-10-26T13:51:38Z</time>
      </trkpt>
      <trkpt lat="44.39425" lon="1.45197">
        <ele>168</ele>
        <time>2016-10-26T13:51:44Z</time>
      </trkpt>
      <trkpt lat="44.39406" lon="1.45193">
        <ele>167</ele>
        <time>2016-10-26T13:51:53Z</time>
      </trkpt>
      <trkpt lat="44.39397" lon="1.45191">
        <ele>170</ele>
        <time>2016-10-26T13:51:57Z</time>
      </trkpt>
      <trkpt lat="44.39385" lon="1.45189">
        <ele>167</ele>
        <time>2016-10-26T13:52:03Z</time>
      </trkpt>
      <trkpt lat="44.39375" lon="1.45193">
        <ele>168</ele>
        <time>2016-10-26T13:52:08Z</time>
      </trkpt>
      <trkpt lat="44.39363" lon="1.45193">
        <ele>167</ele>
        <time>2016-10-26T13:52:13Z</time>
      </trkpt>
      <trkpt lat="44.39339" lon="1.45187">
        <ele>168</ele>
        <time>2016-10-26T13:52:23Z</time>
      </trkpt>
      <trkpt lat="44.39331" lon="1.45186">
        <ele>169</ele>
        <time>2016-10-26T13:52:27Z</time>
      </trkpt>
      <trkpt lat="44.39309" lon="1.4519">
        <ele>173</ele>
        <time>2016-10-26T13:52:36Z</time>
      </trkpt>
      <trkpt lat="44.39304" lon="1.45191">
        <ele>172</ele>
        <time>2016-10-26T13:52:38Z</time>
      </trkpt>
      <trkpt lat="44.39293" lon="1.45194">
        <ele>173</ele>
        <time>2016-10-26T13:52:43Z</time>
      </trkpt>
      <trkpt lat="44.39281" lon="1.45193">
        <ele>178</ele>
        <time>2016-10-26T13:52:49Z</time>
      </trkpt>
      <trkpt lat="44.39269" lon="1.45193">
        <ele>175</ele>
        <time>2016-10-26T13:52:55Z</time>
      </trkpt>
      <trkpt lat="44.39253" lon="1.4519">
        <ele>175</ele>
        <time>2016-10-26T13:53:04Z</time>
      </trkpt>
      <trkpt lat="44.39238" lon="1.45192">
        <ele>176</ele>
        <time>2016-10-26T13:53:11Z</time>
      </trkpt>
      <trkpt lat="44.39224" lon="1.45193">
        <ele>177</ele>
        <time>2016-10-26T13:53:17Z</time>
      </trkpt>
      <trkpt lat="44.39215" lon="1.45197">
        <ele>178</ele>
        <time>2016-10-26T13:53:21Z</time>
      </trkpt>
      <trkpt lat="44.39206" lon="1.45199">
        <ele>183</ele>
        <time>2016-10-26T13:53:25Z</time>
      </trkpt>
      <trkpt lat="44.39191" lon="1.45202">
        <ele>182</ele>
        <time>2016-10-26T13:53:32Z</time>
      </trkpt>
      <trkpt lat="44.3918" lon="1.45207">
        <ele>184</ele>
        <time>2016-10-26T13:53:39Z</time>
      </trkpt>
      <trkpt lat="44.3917" lon="1.45208">
        <ele>183</ele>
        <time>2016-10-26T13:53:44Z</time>
      </trkpt>
      <trkpt lat="44.39159" lon="1.4521">
        <ele>183</ele>
        <time>2016-10-26T13:53:49Z</time>
      </trkpt>
      <trkpt lat="44.39141" lon="1.45214">
        <ele>181</ele>
        <time>2016-10-26T13:53:57Z</time>
      </trkpt>
      <trkpt lat="44.39131" lon="1.45213">
        <ele>183</ele>
        <time>2016-10-26T13:54:02Z</time>
      </trkpt>
      <trkpt lat="44.39114" lon="1.45213">
        <ele>186</ele>
        <time>2016-10-26T13:54:10Z</time>
      </trkpt>
      <trkpt lat="44.39104" lon="1.45215">
        <ele>187</ele>
        <time>2016-10-26T13:54:14Z</time>
      </trkpt>
      <trkpt lat="44.39092" lon="1.45218">
        <ele>186</ele>
        <time>2016-10-26T13:54:19Z</time>
      </trkpt>
      <trkpt lat="44.39081" lon="1.45214">
        <ele>183</ele>
        <time>2016-10-26T13:54:25Z</time>
      </trkpt>
      <trkpt lat="44.39064" lon="1.45213">
        <ele>181</ele>
        <time>2016-10-26T13:54:34Z</time>
      </trkpt>
      <trkpt lat="44.39049" lon="1.4521">
        <ele>179</ele>
        <time>2016-10-26T13:54:42Z</time>
      </trkpt>
      <trkpt lat="44.39044" lon="1.45207">
        <ele>180</ele>
        <time>2016-10-26T13:54:45Z</time>
      </trkpt>
      <trkpt lat="44.39037" lon="1.45205">
        <ele>176</ele>
        <time>2016-10-26T13:54:49Z</time>
      </trkpt>
      <trkpt lat="44.39029" lon="1.45201">
        <ele>170</ele>
        <time>2016-10-26T13:54:55Z</time>
      </trkpt>
      <trkpt lat="44.39018" lon="1.45203">
        <ele>175</ele>
        <time>2016-10-26T13:55:01Z</time>
      </trkpt>
      <trkpt lat="44.39003" lon="1.45208">
        <ele>176</ele>
        <time>2016-10-26T13:55:11Z</time>
      </trkpt>
      <trkpt lat="44.39" lon="1.45208">
        <ele>175</ele>
        <time>2016-10-26T13:55:13Z</time>
      </trkpt>
      <trkpt lat="44.38981" lon="1.45205">
        <ele>175</ele>
        <time>2016-10-26T13:55:23Z</time>
      </trkpt>
      <trkpt lat="44.38977" lon="1.45205">
        <ele>178</ele>
        <time>2016-10-26T13:55:25Z</time>
      </trkpt>
      <trkpt lat="44.38964" lon="1.45208">
        <ele>180</ele>
        <time>2016-10-26T13:55:31Z</time>
      </trkpt>
      <trkpt lat="44.38954" lon="1.45218">
        <ele>181</ele>
        <time>2016-10-26T13:55:37Z</time>
      </trkpt>
      <trkpt lat="44.38944" lon="1.4522">
        <ele>181</ele>
        <time>2016-10-26T13:55:43Z</time>
      </trkpt>
      <trkpt lat="44.38934" lon="1.4522">
        <ele>175</ele>
        <time>2016-10-26T13:55:49Z</time>
      </trkpt>
      <trkpt lat="44.38922" lon="1.45223">
        <ele>175</ele>
        <time>2016-10-26T13:55:57Z</time>
      </trkpt>
      <trkpt lat="44.38914" lon="1.45226">
        <ele>174</ele>
        <time>2016-10-26T13:56:01Z</time>
      </trkpt>
      <trkpt lat="44.38903" lon="1.45233">
        <ele>175</ele>
        <time>2016-10-26T13:56:07Z</time>
      </trkpt>
      <trkpt lat="44.38891" lon="1.45241">
        <ele>171</ele>
        <time>2016-10-26T13:56:13Z</time>
      </trkpt>
      <trkpt lat="44.38869" lon="1.45246">
        <ele>174</ele>
        <time>2016-10-26T13:56:23Z</time>
      </trkpt>
      <trkpt lat="44.38861" lon="1.45248">
        <ele>176</ele>
        <time>2016-10-26T13:56:28Z</time>
      </trkpt>
      <trkpt lat="44.38856" lon="1.4525">
        <ele>178</ele>
        <time>2016-10-26T13:56:31Z</time>
      </trkpt>
      <trkpt lat="44.38842" lon="1.45253">
        <ele>179</ele>
        <time>2016-10-26T13:56:39Z</time>
      </trkpt>
      <trkpt lat="44.38835" lon="1.45254">
        <ele>181</ele>
        <time>2016-10-26T13:56:43Z</time>
      </trkpt>
      <trkpt lat="44.3882" lon="1.45261">
        <ele>179</ele>
        <time>2016-10-26T13:56:51Z</time>
      </trkpt>
      <trkpt lat="44.38813" lon="1.45265">
        <ele>176</ele>
        <time>2016-10-26T13:56:55Z</time>
      </trkpt>
      <trkpt lat="44.38801" lon="1.45263">
        <ele>178</ele>
        <time>2016-10-26T13:57:01Z</time>
      </trkpt>
      <trkpt lat="44.38788" lon="1.45263">
        <ele>179</ele>
        <time>2016-10-26T13:57:07Z</time>
      </trkpt>
      <trkpt lat="44.3877" lon="1.45267">
        <ele>177</ele>
        <time>2016-10-26T13:57:16Z</time>
      </trkpt>
      <trkpt lat="44.38762" lon="1.45268">
        <ele>180</ele>
        <time>2016-10-26T13:57:19Z</time>
      </trkpt>
      <trkpt lat="44.38741" lon="1.45276">
        <ele>188</ele>
        <time>2016-10-26T13:57:27Z</time>
      </trkpt>
      <trkpt lat="44.38732" lon="1.45278">
        <ele>188</ele>
        <time>2016-10-26T13:57:31Z</time>
      </trkpt>
      <trkpt lat="44.38716" lon="1.4528">
        <ele>187</ele>
        <time>2016-10-26T13:57:40Z</time>
      </trkpt>
      <trkpt lat="44.38712" lon="1.4528">
        <ele>187</ele>
        <time>2016-10-26T13:57:43Z</time>
      </trkpt>
      <trkpt lat="44.38707" lon="1.45284">
        <ele>189</ele>
        <time>2016-10-26T13:57:49Z</time>
      </trkpt>
      <trkpt lat="44.38691" lon="1.4528">
        <ele>191</ele>
        <time>2016-10-26T13:58:08Z</time>
      </trkpt>
      <trkpt lat="44.38678" lon="1.45283">
        <ele>191</ele>
        <time>2016-10-26T13:58:14Z</time>
      </trkpt>
      <trkpt lat="44.38662" lon="1.45281">
        <ele>187</ele>
        <time>2016-10-26T13:58:22Z</time>
      </trkpt>
      <trkpt lat="44.38656" lon="1.45279">
        <ele>184</ele>
        <time>2016-10-26T13:58:25Z</time>
      </trkpt>
      <trkpt lat="44.38642" lon="1.45276">
        <ele>184</ele>
        <time>2016-10-26T13:58:31Z</time>
      </trkpt>
      <trkpt lat="44.38626" lon="1.45272">
        <ele>183</ele>
        <time>2016-10-26T13:58:39Z</time>
      </trkpt>
      <trkpt lat="44.38618" lon="1.45273">
        <ele>184</ele>
        <time>2016-10-26T13:58:43Z</time>
      </trkpt>
      <trkpt lat="44.38605" lon="1.45274">
        <ele>183</ele>
        <time>2016-10-26T13:58:49Z</time>
      </trkpt>
      <trkpt lat="44.38593" lon="1.45279">
        <ele>183</ele>
        <time>2016-10-26T13:58:55Z</time>
      </trkpt>
      <trkpt lat="44.38584" lon="1.45276">
        <ele>191</ele>
        <time>2016-10-26T13:59:02Z</time>
      </trkpt>
      <trkpt lat="44.38586" lon="1.45282">
        <ele>189</ele>
        <time>2016-10-26T13:59:13Z</time>
      </trkpt>
      <trkpt lat="44.38585" lon="1.4529">
        <ele>183</ele>
        <time>2016-10-26T13:59:19Z</time>
      </trkpt>
      <trkpt lat="44.3858" lon="1.45296">
        <ele>179</ele>
        <time>2016-10-26T13:59:25Z</time>
      </trkpt>
      <trkpt lat="44.38565" lon="1.45317">
        <ele>187</ele>
        <time>2016-10-26T13:59:36Z</time>
      </trkpt>
      <trkpt lat="44.38562" lon="1.45319">
        <ele>190</ele>
        <time>2016-10-26T13:59:40Z</time>
      </trkpt>
      <trkpt lat="44.38555" lon="1.45326">
        <ele>189</ele>
        <time>2016-10-26T13:59:48Z</time>
      </trkpt>
      <trkpt lat="44.38552" lon="1.45327">
        <ele>188</ele>
        <time>2016-10-26T13:59:50Z</time>
      </trkpt>
      <trkpt lat="44.38546" lon="1.45336">
        <ele>187</ele>
        <time>2016-10-26T13:59:58Z</time>
      </trkpt>
      <trkpt lat="44.38541" lon="1.45343">
        <ele>187</ele>
        <time>2016-10-26T14:00:02Z</time>
      </trkpt>
      <trkpt lat="44.38533" lon="1.45351">
        <ele>190</ele>
        <time>2016-10-26T14:00:10Z</time>
      </trkpt>
      <trkpt lat="44.38533" lon="1.45353">
        <ele>191</ele>
        <time>2016-10-26T14:00:13Z</time>
      </trkpt>
    </trkseg>
  </trk>
</gpx>